Terminal Aerodrome Forecast
Issued by NWS

Home | Current Version | Previous Version | Graphics & Text | Print | Product List | Glossary Off
Versions: 1 2 3 4 5 6 7 8 9 10 11 12 13 14 15 16 17

000
FTUS43 KABR 210952 AAB
TAFMBG
TAF AMD
KMBG 210952Z 2110/2206 08010KT P6SM VCTS BKN100CB
      TEMPO 2110/2113 VRB20G30KT TS BKN100CB
     FM211300 VRB05KT P6SM SCT100
     FM212300 34007KT P6SM SCT150=

USA.gov is the U.S. government's official web portal to all federal, state and local government web resources and services.